map of JRF home
JRF - Airport
Location
City:  Kapolei, Oahu, Hawaii, United States
Name:Kalaeloa Airport
Old (Alt.):John Rodgers Field, CGAS Barbers Point
ICAO:PHJR
IATA:JRF
FAA LID:JRF

Details
Type:Airport (Airfield)
Use:Public/Civil
Latitude:2118'26"N (21.307354)
Longitude:15804'13"W (-158.070301)
Datum:WGS 1984
Elevation:30 ft (9 m)
Variation:9.44E (WMM2015v2 magnetic declination)
-0.03 annual change
Runways:3
Longest:8000 × 200 ft (2438 × 61 m), paved

Time
Time Zone:UTC-10
Local Time:

Weather
METAR:PHJR 041353Z AUTO 05004KT 10SM CLR 19/16 A2994 RMK AO2 SLP144 T01940156 TSNO $
TAF:PHJR 041120Z 0412/0512 04004KT P6SM FEW030
FM042000 06009G15KT P6SM SCT040
FM050500 05004KT P6SM FEW035

Related Locations
Nearby:
Farthest:GNZ: 12430 mi / 20005 km
Ghanzi [Ghanzi Airport], GH, BW

Find:

   beyond  
but within

Other Information
Maps:
NOTAMs:
Links:
Sources:

  
  • flag of United States
  • flag of Hawaii
  

Airport Diagram

Airport diagram for JRF

Airport diagram PDF from FAA

Sectional Chart

Flight Planning
at skyvector.com

Satellite Image

Google Maps Satellite view

 

Copyright © 2004-2019 Karl L. Swartz. All rights reserved.
The Great Circle Mapper name and logo are trademarks of the Great Circle Mapper.
All other trademarks mentioned herein belong to their respective owners.
Please see credits for attibutions and further copyright information.

  Follow gcmap on Facebook Follow gcmap on Twitter GCmap on LinkedIn

hCard Microformat

Geo Microformat